Time;durP1;ratioP1;P1;durP2;ratioP2;P2;SDS_P1;SDS_P2;PMS_P1;PMS_P2;Temp;Humidity;BMP_temperature;BMP_pressure;BME280_temperature;BME280_humidity;BME280_pressure;Samples;Min_cycle;Max_cycle;Signal;HPM_P1;HPM_P2
2023/01/16 00:01:28;;;;;;;;;1.75;1.75;;;;;;;;5083784;28;11390;-77
2023/01/16 00:03:55;;;;;;;;;1.00;1.00;;;;;;;;5079298;28;11500;-77
2023/01/16 00:06:23;;;;;;;;;1.25;1.25;;;;;;;;5066675;28;11441;-78
2023/01/16 00:08:53;;;;;;;;;1.50;0.25;;;;;;;;5085118;28;11439;-77
2023/01/16 00:11:20;;;;;;;;;1.25;0.75;;;;;;;;5085689;28;11422;-77
2023/01/16 00:13:47;;;;;;;;;1.50;1.00;;;;;;;;5086037;28;12191;-78
2023/01/16 00:16:15;;;;;;;;;1.50;1.50;;;;;;;;5086271;28;11428;-76
2023/01/16 00:18:42;;;;;;;;;2.00;2.00;;;;;;;;5084323;28;11392;-77
2023/01/16 00:21:10;;;;;;;;;2.00;0.75;;;;;;;;5082734;28;11398;-77
2023/01/16 00:23:37;;;;;;;;;2.00;0.00;;;;;;;;5083212;28;11459;-77
2023/01/16 00:26:09;;;;;;;;;1.00;1.00;;;;;;;;5082893;28;11449;-77
2023/01/16 00:28:37;;;;;;;;;4.00;3.00;;;;;;;;5086764;28;11431;-77
2023/01/16 00:31:06;;;;;;;;;1.00;1.00;;;;;;;;5101764;28;11355;-77
2023/01/16 00:33:33;;;;;;;;;2.75;1.00;;;;;;;;5086420;28;11522;-76
2023/01/16 00:36:01;;;;;;;;;1.25;1.25;;;;;;;;5084190;28;11417;-77
2023/01/16 00:38:29;;;;;;;;;0.50;0.50;;;;;;;;5080760;28;11466;-77
2023/01/16 00:40:57;;;;;;;;;0.00;0.00;;;;;;;;5084855;28;11429;-77
2023/01/16 00:43:26;;;;;;;;;1.00;1.00;;;;;;;;5085418;28;11431;-77
2023/01/16 00:45:53;;;;;;;;;1.00;1.00;;;;;;;;5113517;27;11485;-77
2023/01/16 00:48:21;;;;;;;;;1.00;1.00;;;;;;;;5083907;28;11413;-77
2023/01/16 00:50:49;;;;;;;;;2.00;0.50;;;;;;;;5083033;28;11462;-77
2023/01/16 00:53:17;;;;;;;;;2.75;1.00;;;;;;;;5083668;28;11552;-76
2023/01/16 00:55:45;;;;;;;;;0.00;0.00;;;;;;;;5082745;28;11432;-77
2023/01/16 00:58:13;;;;;;;;;1.00;1.00;;;;;;;;5081740;28;12038;-77
2023/01/16 01:00:42;;;;;;;;;0.00;0.00;;;;;;;;5082296;28;11371;-77
2023/01/16 01:03:09;;;;;;;;;0.00;0.00;;;;;;;;5084396;28;11419;-76
2023/01/16 01:05:38;;;;;;;;;0.75;0.75;;;;;;;;5083147;28;11422;-77
2023/01/16 01:08:06;;;;;;;;;0.00;0.00;;;;;;;;5083610;28;11522;-77
2023/01/16 01:10:34;;;;;;;;;0.00;0.00;;;;;;;;5083762;28;11426;-76
2023/01/16 01:13:01;;;;;;;;;0.00;0.00;;;;;;;;5081225;28;11428;-76
2023/01/16 01:15:28;;;;;;;;;0.00;0.00;;;;;;;;5114321;27;12200;-77
2023/01/16 01:17:57;;;;;;;;;1.00;1.00;;;;;;;;5083743;28;11425;-77
2023/01/16 01:20:25;;;;;;;;;1.75;0.50;;;;;;;;5084647;28;11422;-77
2023/01/16 01:22:52;;;;;;;;;1.75;1.00;;;;;;;;5067080;28;11429;-77
2023/01/16 01:25:20;;;;;;;;;0.25;0.25;;;;;;;;5085082;28;11413;-77
2023/01/16 01:27:48;;;;;;;;;0.00;0.00;;;;;;;;5086912;28;11499;-77
2023/01/16 01:30:16;;;;;;;;;0.50;0.00;;;;;;;;5085125;28;11441;-77
2023/01/16 01:32:43;;;;;;;;;1.00;0.00;;;;;;;;5087208;28;11429;-77
2023/01/16 01:35:12;;;;;;;;;1.00;0.00;;;;;;;;5091010;28;11415;-77
2023/01/16 01:37:39;;;;;;;;;0.00;0.00;;;;;;;;5084473;28;11442;-77
2023/01/16 01:40:08;;;;;;;;;0.00;0.00;;;;;;;;5084950;28;11432;-77
2023/01/16 01:45:23;;;;;;;;;3.25;0.00;;;;;;;;5082683;28;11411;-77
2023/01/16 01:47:55;;;;;;;;;0.00;0.00;;;;;;;;5086756;28;11432;-77
2023/01/16 01:50:32;;;;;;;;;0.00;0.00;;;;;;;;5101747;28;11441;-77
2023/01/16 01:53:02;;;;;;;;;0.00;0.00;;;;;;;;5087882;28;11431;-77
2023/01/16 01:55:30;;;;;;;;;0.00;0.00;;;;;;;;5087824;28;11452;-78
2023/01/16 01:58:00;;;;;;;;;0.00;0.00;;;;;;;;5085228;28;11457;-77
2023/01/16 02:00:28;;;;;;;;;0.25;0.00;;;;;;;;5086825;27;11354;-78
2023/01/16 02:03:02;;;;;;;;;0.00;0.00;;;;;;;;5088022;28;11414;-77
2023/01/16 02:05:36;;;;;;;;;2.00;0.00;;;;;;;;5086618;28;11425;-79
2023/01/16 02:08:04;;;;;;;;;0.50;0.00;;;;;;;;5087764;28;11419;-77
2023/01/16 02:10:36;;;;;;;;;0.00;0.00;;;;;;;;5085685;28;11525;-76
2023/01/16 02:13:03;;;;;;;;;0.00;0.00;;;;;;;;5086140;28;11447;-77
2023/01/16 02:15:31;;;;;;;;;1.00;1.00;;;;;;;;5085336;28;11430;-77
2023/01/16 02:20:59;;;;;;;;;0.00;0.00;;;;;;;;5083074;28;11387;-77
2023/01/16 02:24:00;;;;;;;;;0.00;0.00;;;;;;;;5082328;28;11532;-77
2023/01/16 02:26:51;;;;;;;;;0.00;0.00;;;;;;;;5061686;28;11435;-77
2023/01/16 02:30:03;;;;;;;;;0.00;0.00;;;;;;;;5063752;28;11471;-77
2023/01/16 02:32:40;;;;;;;;;0.00;0.00;;;;;;;;5038163;28;11409;-77
2023/01/16 02:35:22;;;;;;;;;0.00;0.00;;;;;;;;5078676;28;11409;-76
2023/01/16 02:37:53;;;;;;;;;1.00;0.00;;;;;;;;5079383;28;11570;-76
2023/01/16 02:40:29;;;;;;;;;0.00;0.00;;;;;;;;5076273;28;11447;-77
2023/01/16 02:43:08;;;;;;;;;0.00;0.00;;;;;;;;5077251;28;11429;-76
2023/01/16 02:45:44;;;;;;;;;0.00;0.00;;;;;;;;5079902;27;11420;-76
2023/01/16 02:48:23;;;;;;;;;0.00;0.00;;;;;;;;5078766;28;12192;-76
2023/01/16 02:50:56;;;;;;;;;2.00;0.00;;;;;;;;5080080;28;11414;-76
2023/01/16 02:53:28;;;;;;;;;0.25;0.25;;;;;;;;5080046;28;12370;-77
2023/01/16 02:56:02;;;;;;;;;0.00;0.00;;;;;;;;5079120;28;11423;-76
2023/01/16 02:58:32;;;;;;;;;0.50;0.50;;;;;;;;5080611;28;12248;-77
2023/01/16 03:01:01;;;;;;;;;0.75;0.00;;;;;;;;5080977;28;11389;-76
2023/01/16 03:03:47;;;;;;;;;2.00;1.00;;;;;;;;5080036;28;11378;-76
2023/01/16 03:06:33;;;;;;;;;0.25;0.25;;;;;;;;5081531;28;11392;-76
2023/01/16 03:09:24;;;;;;;;;0.00;0.00;;;;;;;;5080117;28;11434;-76
2023/01/16 03:12:02;;;;;;;;;0.00;0.00;;;;;;;;5077577;28;11458;-76
2023/01/16 03:14:35;;;;;;;;;0.00;0.00;;;;;;;;5079263;28;11412;-76
2023/01/16 03:17:15;;;;;;;;;1.00;0.00;;;;;;;;5080340;28;11429;-76
2023/01/16 03:19:57;;;;;;;;;0.00;0.00;;;;;;;;5064387;28;11529;-77
2023/01/16 03:22:29;;;;;;;;;2.00;1.00;;;;;;;;5080910;28;11420;-77
2023/01/16 03:25:10;;;;;;;;;1.00;0.00;;;;;;;;5080717;28;11453;-76
2023/01/16 03:27:46;;;;;;;;;0.00;0.00;;;;;;;;5081196;28;11483;-76
2023/01/16 03:30:19;;;;;;;;;2.00;0.00;;;;;;;;5080582;28;11491;-76
2023/01/16 03:32:50;;;;;;;;;0.00;0.00;;;;;;;;5084307;28;11410;-77
2023/01/16 03:35:22;;;;;;;;;0.00;0.00;;;;;;;;5082523;28;11399;-80
2023/01/16 03:37:54;;;;;;;;;0.00;0.00;;;;;;;;5080808;28;11418;-76
2023/01/16 03:40:25;;;;;;;;;0.00;0.00;;;;;;;;5083708;28;11429;-77
2023/01/16 03:42:57;;;;;;;;;1.00;0.00;;;;;;;;5083181;28;12306;-77
2023/01/16 03:45:29;;;;;;;;;0.00;0.00;;;;;;;;5081661;28;11423;-77
2023/01/16 03:48:03;;;;;;;;;0.00;0.00;;;;;;;;5083188;28;11416;-76
2023/01/16 03:50:34;;;;;;;;;0.00;0.00;;;;;;;;5083341;28;11437;-76
2023/01/16 03:53:05;;;;;;;;;0.00;0.00;;;;;;;;5080137;28;11449;-76
2023/01/16 03:55:36;;;;;;;;;0.00;0.00;;;;;;;;5081551;28;11442;-77
2023/01/16 03:58:08;;;;;;;;;0.00;0.00;;;;;;;;5080690;28;11435;-77
2023/01/16 04:00:44;;;;;;;;;0.00;0.00;;;;;;;;5083654;28;12158;-76
2023/01/16 04:03:14;;;;;;;;;0.50;0.00;;;;;;;;5080867;28;11443;-76
2023/01/16 04:05:50;;;;;;;;;0.00;0.00;;;;;;;;5083746;28;11426;-76
2023/01/16 04:08:20;;;;;;;;;0.00;0.00;;;;;;;;5083093;28;11439;-77
2023/01/16 04:10:49;;;;;;;;;0.00;0.00;;;;;;;;5082527;28;11413;-77
2023/01/16 04:13:20;;;;;;;;;1.00;0.00;;;;;;;;5081465;28;11421;-76
2023/01/16 04:15:51;;;;;;;;;0.00;0.00;;;;;;;;5081079;28;11411;-76
2023/01/16 04:18:20;;;;;;;;;0.00;0.00;;;;;;;;5083865;28;11416;-76
2023/01/16 04:20:50;;;;;;;;;0.00;0.00;;;;;;;;5084153;28;11393;-76
2023/01/16 04:23:18;;;;;;;;;0.00;0.00;;;;;;;;5079724;28;11451;-76
2023/01/16 04:25:46;;;;;;;;;0.00;0.00;;;;;;;;5084868;28;12168;-77
2023/01/16 04:28:14;;;;;;;;;0.00;0.00;;;;;;;;5082896;28;11425;-76
2023/01/16 04:30:41;;;;;;;;;0.00;0.00;;;;;;;;5064420;28;11380;-77
2023/01/16 04:33:09;;;;;;;;;0.00;0.00;;;;;;;;5082763;28;11524;-77
2023/01/16 04:35:36;;;;;;;;;0.00;0.00;;;;;;;;5080552;28;11434;-77
2023/01/16 04:38:05;;;;;;;;;0.00;0.00;;;;;;;;5080337;28;11400;-76
2023/01/16 04:40:33;;;;;;;;;0.00;0.00;;;;;;;;5079882;28;12286;-77
2023/01/16 04:43:00;;;;;;;;;0.00;0.00;;;;;;;;5080222;28;11494;-76
2023/01/16 04:45:28;;;;;;;;;0.00;0.00;;;;;;;;5078816;28;11433;-77
2023/01/16 04:47:55;;;;;;;;;0.00;0.00;;;;;;;;5082703;28;11431;-77
2023/01/16 04:50:23;;;;;;;;;0.00;0.00;;;;;;;;5081207;28;11399;-77
2023/01/16 04:52:50;;;;;;;;;0.00;0.00;;;;;;;;5079886;28;11383;-77
2023/01/16 04:55:20;;;;;;;;;0.00;0.00;;;;;;;;5080806;28;11408;-77
2023/01/16 04:57:48;;;;;;;;;0.00;0.00;;;;;;;;5078512;28;11524;-77
2023/01/16 05:00:15;;;;;;;;;0.00;0.00;;;;;;;;5081531;28;11429;-77
2023/01/16 05:02:43;;;;;;;;;0.00;0.00;;;;;;;;5081087;28;11406;-76
2023/01/16 05:05:11;;;;;;;;;0.00;0.00;;;;;;;;5080654;28;11534;-77
2023/01/16 05:07:38;;;;;;;;;0.00;0.00;;;;;;;;5082019;28;11457;-77
2023/01/16 05:10:07;;;;;;;;;0.75;0.00;;;;;;;;5112875;27;11426;-77
2023/01/16 05:12:36;;;;;;;;;0.00;0.00;;;;;;;;5059860;28;12306;-77
2023/01/16 05:15:04;;;;;;;;;0.00;0.00;;;;;;;;5060482;28;11447;-76
2023/01/16 05:17:31;;;;;;;;;0.00;0.00;;;;;;;;5063512;28;11414;-76
2023/01/16 05:19:59;;;;;;;;;1.00;0.00;;;;;;;;5062464;28;11425;-77
2023/01/16 05:22:27;;;;;;;;;0.00;0.00;;;;;;;;5063406;28;11429;-77
2023/01/16 05:24:54;;;;;;;;;0.00;0.00;;;;;;;;5066580;28;11534;-77
2023/01/16 05:27:22;;;;;;;;;0.00;0.00;;;;;;;;5061751;28;11435;-77
2023/01/16 05:29:51;;;;;;;;;0.00;0.00;;;;;;;;5060672;28;11411;-77
2023/01/16 05:32:18;;;;;;;;;0.00;0.00;;;;;;;;5061388;28;12261;-77
2023/01/16 05:34:46;;;;;;;;;0.00;0.00;;;;;;;;5067549;28;11434;-76
2023/01/16 05:37:13;;;;;;;;;0.00;0.00;;;;;;;;5067271;28;11470;-76
2023/01/16 05:39:41;;;;;;;;;0.00;0.00;;;;;;;;5065967;28;11424;-76
2023/01/16 05:42:20;;;;;;;;;0.00;0.00;;;;;;;;5064733;28;11491;-76
2023/01/16 05:44:48;;;;;;;;;0.00;0.00;;;;;;;;5064435;28;11431;-76
2023/01/16 05:47:17;;;;;;;;;0.00;0.00;;;;;;;;5041735;28;11433;-76
2023/01/16 05:49:45;;;;;;;;;0.00;0.00;;;;;;;;5059436;28;11522;-75
2023/01/16 05:52:13;;;;;;;;;0.00;0.00;;;;;;;;5060906;28;11995;-75
2023/01/16 05:54:41;;;;;;;;;0.00;0.00;;;;;;;;5063582;28;11446;-76
2023/01/16 05:57:12;;;;;;;;;0.00;0.00;;;;;;;;5062722;28;11434;-75
2023/01/16 05:59:41;;;;;;;;;0.00;0.00;;;;;;;;5061728;28;11548;-76
2023/01/16 06:02:08;;;;;;;;;0.00;0.00;;;;;;;;5068879;28;12242;-76
2023/01/16 06:04:37;;;;;;;;;1.00;0.00;;;;;;;;5070469;28;11524;-78
2023/01/16 06:07:05;;;;;;;;;0.00;0.00;;;;;;;;5068891;28;12340;-76
2023/01/16 06:09:33;;;;;;;;;0.00;0.00;;;;;;;;5066538;28;11443;-77
2023/01/16 06:12:00;;;;;;;;;0.00;0.00;;;;;;;;5075504;28;11409;-77
2023/01/16 06:14:30;;;;;;;;;0.00;0.00;;;;;;;;5082534;28;11444;-77
2023/01/16 06:16:58;;;;;;;;;0.00;0.00;;;;;;;;5080028;28;11415;-78
2023/01/16 06:19:25;;;;;;;;;0.00;0.00;;;;;;;;5081363;28;11439;-77
2023/01/16 06:21:54;;;;;;;;;0.00;0.00;;;;;;;;5081409;28;11401;-77
2023/01/16 06:24:22;;;;;;;;;0.00;0.00;;;;;;;;5081021;28;11408;-77
2023/01/16 06:26:49;;;;;;;;;0.00;0.00;;;;;;;;5079432;28;11510;-75
2023/01/16 06:29:17;;;;;;;;;0.00;0.00;;;;;;;;5081236;28;11445;-75
2023/01/16 06:31:44;;;;;;;;;0.00;0.00;;;;;;;;5081545;28;11377;-73
2023/01/16 06:34:12;;;;;;;;;0.00;0.00;;;;;;;;5078375;28;11420;-72
2023/01/16 06:36:41;;;;;;;;;0.00;0.00;;;;;;;;5081601;28;11425;-72
2023/01/16 06:39:12;;;;;;;;;0.00;0.00;;;;;;;;5081271;28;11508;-72
2023/01/16 06:41:39;;;;;;;;;0.00;0.00;;;;;;;;5080039;28;11423;-72
2023/01/16 06:44:07;;;;;;;;;0.00;0.00;;;;;;;;5081158;28;12306;-72
2023/01/16 06:46:35;;;;;;;;;0.00;0.00;;;;;;;;5081452;28;11407;-73
2023/01/16 06:49:03;;;;;;;;;1.00;0.00;;;;;;;;5081326;28;11461;-72
2023/01/16 06:51:30;;;;;;;;;1.00;1.00;;;;;;;;5078182;28;11424;-72
2023/01/16 06:53:58;;;;;;;;;0.00;0.00;;;;;;;;5079339;28;11424;-73
2023/01/16 06:56:27;;;;;;;;;0.00;0.00;;;;;;;;5079948;28;11468;-73
2023/01/16 06:58:54;;;;;;;;;0.00;0.00;;;;;;;;5081237;28;11429;-73
2023/01/16 07:01:22;;;;;;;;;0.00;0.00;;;;;;;;5077820;28;11369;-73
2023/01/16 07:03:49;;;;;;;;;0.75;0.00;;;;;;;;5079693;28;11441;-72
2023/01/16 07:06:17;;;;;;;;;0.00;0.00;;;;;;;;5079671;28;11456;-72
2023/01/16 07:08:52;;;;;;;;;0.00;0.00;;;;;;;;5081622;28;11427;-72
2023/01/16 07:11:20;;;;;;;;;0.00;0.00;;;;;;;;5080848;28;11387;-73
2023/01/16 07:22:33;;;;;;;;;0.00;0.00;;;;;;;;5080374;28;11442;-73
2023/01/16 07:24:54;;;;;;;;;0.00;0.00;;;;;;;;5078842;28;11416;-73
2023/01/16 07:27:22;;;;;;;;;0.50;0.00;;;;;;;;5077991;28;11439;-72
2023/01/16 07:29:51;;;;;;;;;0.00;0.00;;;;;;;;5079124;28;11508;-73
2023/01/16 07:32:19;;;;;;;;;0.00;0.00;;;;;;;;5078578;28;11430;-73
2023/01/16 07:34:46;;;;;;;;;2.50;0.00;;;;;;;;5079289;28;11532;-73
2023/01/16 07:37:14;;;;;;;;;0.25;0.00;;;;;;;;5079234;28;11490;-76
2023/01/16 07:39:41;;;;;;;;;1.00;0.00;;;;;;;;5081097;28;11654;-73
2023/01/16 07:42:09;;;;;;;;;0.00;0.00;;;;;;;;5079757;28;11423;-73
2023/01/16 07:44:36;;;;;;;;;0.00;0.00;;;;;;;;5080894;28;11453;-73
2023/01/16 07:47:05;;;;;;;;;0.00;0.00;;;;;;;;5080558;28;11399;-74
2023/01/16 07:49:33;;;;;;;;;1.00;1.00;;;;;;;;5078615;28;11417;-76
2023/01/16 07:52:00;;;;;;;;;0.00;0.00;;;;;;;;5081799;28;11422;-77
2023/01/16 07:54:28;;;;;;;;;0.00;0.00;;;;;;;;5081259;28;11454;-77
2023/01/16 07:56:55;;;;;;;;;0.00;0.00;;;;;;;;5075461;28;11547;-75
2023/01/16 07:59:23;;;;;;;;;0.75;0.00;;;;;;;;5078425;28;11440;-74
2023/01/16 08:01:50;;;;;;;;;0.00;0.00;;;;;;;;5079892;28;11500;-73
2023/01/16 08:04:19;;;;;;;;;0.50;0.50;;;;;;;;5079772;28;11485;-72
2023/01/16 08:06:46;;;;;;;;;0.50;0.50;;;;;;;;5078334;28;11440;-74
2023/01/16 08:09:14;;;;;;;;;0.00;0.00;;;;;;;;5078975;28;11415;-72
2023/01/16 08:11:46;;;;;;;;;0.00;0.00;;;;;;;;5079238;28;11435;-72
2023/01/16 08:14:14;;;;;;;;;6.00;2.00;;;;;;;;5080090;28;11423;-72
2023/01/16 08:16:42;;;;;;;;;2.00;0.50;;;;;;;;5078778;28;11408;-72
2023/01/16 08:19:09;;;;;;;;;0.00;0.00;;;;;;;;5078167;28;11450;-72
2023/01/16 08:21:38;;;;;;;;;0.00;0.00;;;;;;;;5078430;28;11563;-72
2023/01/16 08:24:07;;;;;;;;;0.00;0.00;;;;;;;;5074674;28;11461;-72
2023/01/16 08:26:35;;;;;;;;;0.00;0.00;;;;;;;;5078581;28;11459;-72
2023/01/16 08:29:03;;;;;;;;;0.00;0.00;;;;;;;;5075868;28;11439;-72
2023/01/16 08:31:30;;;;;;;;;0.00;0.00;;;;;;;;5079961;28;11389;-72
2023/01/16 08:33:58;;;;;;;;;0.75;0.00;;;;;;;;5063206;28;12218;-72
2023/01/16 08:36:25;;;;;;;;;0.00;0.00;;;;;;;;5082264;28;13427;-71
2023/01/16 08:38:54;;;;;;;;;0.00;0.00;;;;;;;;5083600;28;11383;-72
2023/01/16 08:52:27;;;;;;;;;0.00;0.00;;;;;;;;5080301;28;11411;-75
2023/01/16 08:54:56;;;;;;;;;2.50;0.00;;;;;;;;5082705;28;11513;-74
2023/01/16 08:57:23;;;;;;;;;0.00;0.00;;;;;;;;5082535;28;11586;-75
2023/01/16 08:59:51;;;;;;;;;1.50;0.00;;;;;;;;5084146;28;12221;-74
2023/01/16 09:02:19;;;;;;;;;2.00;2.00;;;;;;;;5084030;28;11500;-73
2023/01/16 09:04:47;;;;;;;;;0.75;0.00;;;;;;;;5078710;28;72008;-73
2023/01/16 09:07:15;;;;;;;;;0.00;0.00;;;;;;;;5081313;28;11418;-74
2023/01/16 09:09:42;;;;;;;;;0.00;0.00;;;;;;;;5081910;28;12051;-73
2023/01/16 09:14:56;;;;;;;;;0.00;0.00;;;;;;;;5074389;28;11393;-72
2023/01/16 09:17:24;;;;;;;;;0.00;0.00;;;;;;;;5079437;28;12252;-72
2023/01/16 09:19:52;;;;;;;;;1.00;0.00;;;;;;;;5080081;28;11388;-72
2023/01/16 09:22:20;;;;;;;;;0.00;0.00;;;;;;;;5078301;28;11416;-72
2023/01/16 09:24:48;;;;;;;;;0.00;0.00;;;;;;;;5075605;28;12399;-72
2023/01/16 09:27:18;;;;;;;;;0.00;0.00;;;;;;;;5079076;28;11449;-72
2023/01/16 09:29:45;;;;;;;;;0.00;0.00;;;;;;;;5074576;28;11531;-72
2023/01/16 09:32:13;;;;;;;;;0.00;0.00;;;;;;;;5082156;28;11384;-72
2023/01/16 09:34:42;;;;;;;;;0.00;0.00;;;;;;;;5082619;28;11669;-72
2023/01/16 09:37:10;;;;;;;;;0.00;0.00;;;;;;;;5067954;28;11203;-72
2023/01/16 09:39:37;;;;;;;;;0.00;0.00;;;;;;;;5078816;28;11283;-72
2023/01/16 09:45:27;;;;;;;;;0.50;0.00;;;;;;;;5079861;28;11144;-76
2023/01/16 09:47:57;;;;;;;;;0.00;0.00;;;;;;;;5073972;28;11101;-75
2023/01/16 09:50:31;;;;;;;;;0.00;0.00;;;;;;;;5081499;28;11118;-74
2023/01/16 09:58:36;;;;;;;;;0.00;0.00;;;;;;;;5075903;28;10994;-74
2023/01/16 10:01:06;;;;;;;;;0.00;0.00;;;;;;;;5082577;28;10811;-74
2023/01/16 10:03:34;;;;;;;;;1.50;0.00;;;;;;;;5081177;28;10884;-75
2023/01/16 10:06:13;;;;;;;;;0.00;0.00;;;;;;;;5082708;28;10911;-73
2023/01/16 10:08:45;;;;;;;;;0.00;0.00;;;;;;;;5082200;28;11029;-76
2023/01/16 10:11:19;;;;;;;;;0.00;0.00;;;;;;;;5078741;28;11119;-76
2023/01/16 10:14:10;;;;;;;;;0.00;0.00;;;;;;;;5078767;28;10938;-74
2023/01/16 10:16:52;;;;;;;;;0.00;0.00;;;;;;;;5081953;28;11116;-75
2023/01/16 10:19:40;;;;;;;;;0.00;0.00;;;;;;;;5078967;28;10959;-77
2023/01/16 10:22:31;;;;;;;;;1.00;1.00;;;;;;;;5076697;28;11812;-75
2023/01/16 10:25:13;;;;;;;;;0.00;0.00;;;;;;;;5074489;28;11445;-76
2023/01/16 10:27:48;;;;;;;;;0.00;0.00;;;;;;;;5072922;28;11122;-76
2023/01/16 10:30:19;;;;;;;;;0.00;0.00;;;;;;;;5079254;28;11243;-77
2023/01/16 10:32:53;;;;;;;;;0.00;0.00;;;;;;;;5068517;28;11005;-75
2023/01/16 10:35:24;;;;;;;;;0.00;0.00;;;;;;;;5078349;28;11164;-76
2023/01/16 10:37:52;;;;;;;;;0.00;0.00;;;;;;;;5074601;28;11170;-73
2023/01/16 10:40:24;;;;;;;;;0.00;0.00;;;;;;;;5068049;28;11082;-76
2023/01/16 10:51:16;;;;;;;;;0.50;0.00;;;;;;;;5080042;28;11039;-74
2023/01/16 10:53:44;;;;;;;;;0.00;0.00;;;;;;;;5064219;28;10962;-74
2023/01/16 10:56:11;;;;;;;;;0.00;0.00;;;;;;;;5077938;28;11633;-75
2023/01/16 10:58:41;;;;;;;;;0.00;0.00;;;;;;;;5076356;28;10952;-74
2023/01/16 11:01:14;;;;;;;;;0.00;0.00;;;;;;;;5077221;28;11536;-73
2023/01/16 11:03:46;;;;;;;;;0.00;0.00;;;;;;;;5089277;28;10769;-72
2023/01/16 11:06:15;;;;;;;;;0.00;0.00;;;;;;;;5080071;28;10730;-75
2023/01/16 11:08:44;;;;;;;;;1.00;0.00;;;;;;;;5078168;28;11834;-74
2023/01/16 11:19:43;;;;;;;;;3.00;1.75;;;;;;;;5075841;28;10827;-73
2023/01/16 11:22:24;;;;;;;;;0.00;0.00;;;;;;;;5075098;28;11936;-75
2023/01/16 11:24:55;;;;;;;;;1.00;1.00;;;;;;;;5074886;28;11491;-75
2023/01/16 11:27:25;;;;;;;;;0.00;0.00;;;;;;;;5074998;28;11084;-75
2023/01/16 11:29:54;;;;;;;;;0.00;0.00;;;;;;;;5071222;28;11164;-75
2023/01/16 11:32:24;;;;;;;;;0.00;0.00;;;;;;;;5074834;28;11403;-75
2023/01/16 11:34:55;;;;;;;;;0.00;0.00;;;;;;;;5077381;28;11432;-76
2023/01/16 11:37:24;;;;;;;;;0.00;0.00;;;;;;;;5077233;28;11397;-74
2023/01/16 11:39:53;;;;;;;;;0.00;0.00;;;;;;;;5078075;28;11411;-74
2023/01/16 11:48:22;;;;;;;;;0.00;0.00;;;;;;;;5078393;28;11384;-72
2023/01/16 11:50:52;;;;;;;;;0.00;0.00;;;;;;;;5083233;28;11506;-73
2023/01/16 11:53:20;;;;;;;;;0.00;0.00;;;;;;;;5078561;28;11452;-71
2023/01/16 11:55:57;;;;;;;;;0.00;0.00;;;;;;;;5079695;28;12217;-75
2023/01/16 11:58:33;;;;;;;;;0.00;0.00;;;;;;;;5078689;28;12197;-75
2023/01/16 12:01:06;;;;;;;;;0.00;0.00;;;;;;;;5081601;28;11387;-75
2023/01/16 12:03:57;;;;;;;;;0.00;0.00;;;;;;;;5077741;28;12444;-75
2023/01/16 12:06:47;;;;;;;;;0.00;0.00;;;;;;;;5075017;28;11530;-76
2023/01/16 12:09:45;;;;;;;;;0.00;0.00;;;;;;;;5081701;28;11409;-75
2023/01/16 12:15:08;;;;;;;;;0.00;0.00;;;;;;;;5081790;28;12258;-74
2023/01/16 12:17:57;;;;;;;;;0.00;0.00;;;;;;;;5078044;28;11554;-75
2023/01/16 12:20:30;;;;;;;;;0.00;0.00;;;;;;;;5077405;28;11401;-75
2023/01/16 12:23:26;;;;;;;;;0.00;0.00;;;;;;;;5077497;28;11433;-75
2023/01/16 12:26:03;;;;;;;;;0.00;0.00;;;;;;;;5082242;28;12859;-75
2023/01/16 12:28:40;;;;;;;;;0.00;0.00;;;;;;;;5081120;28;11432;-73
2023/01/16 12:31:30;;;;;;;;;0.00;0.00;;;;;;;;5078355;28;11376;-72
2023/01/16 12:34:03;;;;;;;;;0.00;0.00;;;;;;;;5079278;28;11417;-72
2023/01/16 12:36:39;;;;;;;;;0.00;0.00;;;;;;;;5080293;28;11576;-71
2023/01/16 12:39:18;;;;;;;;;0.00;0.00;;;;;;;;5080626;28;11401;-71
2023/01/16 12:44:47;;;;;;;;;0.00;0.00;;;;;;;;5077852;28;11612;-71
2023/01/16 12:47:41;;;;;;;;;0.00;0.00;;;;;;;;5078605;28;11486;-71
2023/01/16 12:50:21;;;;;;;;;0.00;0.00;;;;;;;;5067459;28;11515;-70
2023/01/16 12:53:01;;;;;;;;;0.00;0.00;;;;;;;;5080999;28;11489;-71
2023/01/16 12:55:41;;;;;;;;;0.75;0.00;;;;;;;;5077801;28;11519;-71
2023/01/16 12:58:15;;;;;;;;;0.00;0.00;;;;;;;;5079548;28;11514;-71
2023/01/16 13:00:44;;;;;;;;;0.00;0.00;;;;;;;;5078434;28;11399;-71
2023/01/16 13:03:18;;;;;;;;;0.00;0.00;;;;;;;;5077362;28;11413;-72
2023/01/16 13:05:46;;;;;;;;;0.00;0.00;;;;;;;;5078839;28;12211;-71
2023/01/16 13:08:19;;;;;;;;;0.00;0.00;;;;;;;;5076257;28;11425;-71
2023/01/16 13:13:39;;;;;;;;;0.00;0.00;;;;;;;;5079055;28;11409;-73
2023/01/16 13:16:13;;;;;;;;;0.00;0.00;;;;;;;;5079516;28;11422;-71
2023/01/16 13:18:45;;;;;;;;;2.00;0.00;;;;;;;;5080337;28;11461;-71
2023/01/16 13:21:16;;;;;;;;;0.00;0.00;;;;;;;;5078673;28;11442;-72
2023/01/16 13:23:49;;;;;;;;;1.75;0.00;;;;;;;;5078783;28;11510;-71
2023/01/16 13:26:19;;;;;;;;;0.00;0.00;;;;;;;;5079497;28;11452;-72
2023/01/16 13:28:52;;;;;;;;;2.00;0.25;;;;;;;;5075286;28;11449;-72
2023/01/16 13:31:26;;;;;;;;;2.00;0.75;;;;;;;;5075635;28;11394;-72
2023/01/16 13:33:58;;;;;;;;;1.00;1.00;;;;;;;;5079249;28;11428;-72
2023/01/16 13:37:09;;;;;;;;;3.00;3.00;;;;;;;;5079249;28;11438;-72
2023/01/16 13:40:17;;;;;;;;;2.75;0.25;;;;;;;;5040144;28;11501;-71
2023/01/16 13:42:52;;;;;;;;;5.25;2.50;;;;;;;;5063440;28;12209;-71
2023/01/16 13:48:12;;;;;;;;;1.00;1.00;;;;;;;;5078409;28;13315;-71
2023/01/16 13:50:44;;;;;;;;;1.50;1.00;;;;;;;;5080038;28;11486;-70
2023/01/16 13:53:15;;;;;;;;;3.00;1.25;;;;;;;;5079335;28;11539;-71
2023/01/16 13:55:43;;;;;;;;;1.75;1.75;;;;;;;;5077255;28;11899;-71
2023/01/16 13:58:18;;;;;;;;;2.00;2.00;;;;;;;;5077262;28;11440;-71
2023/01/16 14:00:46;;;;;;;;;0.50;0.50;;;;;;;;5079405;28;11453;-71
2023/01/16 14:03:24;;;;;;;;;1.50;1.50;;;;;;;;5077989;28;11424;-71
2023/01/16 14:05:53;;;;;;;;;0.50;0.00;;;;;;;;5078292;28;11472;-71
2023/01/16 14:11:18;;;;;;;;;2.00;0.00;;;;;;;;5076898;28;11446;-72
2023/01/16 14:13:47;;;;;;;;;2.00;1.00;;;;;;;;5073949;28;11430;-72
2023/01/16 14:16:38;;;;;;;;;0.25;0.25;;;;;;;;5077491;28;12215;-71
2023/01/16 14:19:22;;;;;;;;;1.00;1.00;;;;;;;;5060979;28;11437;-71
2023/01/16 14:24:00;;;;;;;;;3.75;1.50;;;;;;;;5077372;28;11525;-72
2023/01/16 14:24:52;;;;;;;;;3.00;1.25;;;;;;;;5078233;28;11401;-71
2023/01/16 14:27:22;;;;;;;;;1.00;1.00;;;;;;;;5077292;28;11623;-71
2023/01/16 14:29:54;;;;;;;;;1.50;1.50;;;;;;;;5072163;28;13268;-71
2023/01/16 14:32:25;;;;;;;;;4.75;2.75;;;;;;;;5076269;27;11518;-72
2023/01/16 14:34:56;;;;;;;;;2.00;2.00;;;;;;;;5078987;28;11486;-72
2023/01/16 14:37:25;;;;;;;;;1.75;1.75;;;;;;;;5074783;28;11522;-71
2023/01/16 14:39:55;;;;;;;;;3.00;1.50;;;;;;;;5077917;28;11506;-72
2023/01/16 14:57:10;;;;;;;;;0.00;0.00;;;;;;;;5077410;28;11382;-72
2023/01/16 14:59:40;;;;;;;;;1.00;0.00;;;;;;;;5077535;28;11496;-72
2023/01/16 15:02:30;;;;;;;;;2.00;0.50;;;;;;;;5077724;28;11411;-72
2023/01/16 15:05:03;;;;;;;;;1.25;1.25;;;;;;;;5077973;28;12396;-72
2023/01/16 15:07:33;;;;;;;;;2.00;0.50;;;;;;;;5078676;28;11421;-72
2023/01/16 15:10:06;;;;;;;;;1.00;1.00;;;;;;;;5078046;28;11497;-72
2023/01/16 15:12:39;;;;;;;;;1.00;1.00;;;;;;;;5077841;28;12205;-72
2023/01/16 15:15:17;;;;;;;;;1.00;1.00;;;;;;;;5079586;28;11558;-71
2023/01/16 15:23:22;;;;;;;;;4.25;1.00;;;;;;;;5081504;28;11483;-73
2023/01/16 15:26:20;;;;;;;;;1.00;1.00;;;;;;;;5078456;28;11555;-72
2023/01/16 15:28:59;;;;;;;;;1.00;1.00;;;;;;;;5077530;28;11786;-72
2023/01/16 15:31:28;;;;;;;;;1.00;1.00;;;;;;;;5079212;28;11448;-73
2023/01/16 15:34:02;;;;;;;;;5.25;3.00;;;;;;;;5080214;28;11467;-71
2023/01/16 15:36:36;;;;;;;;;3.00;1.00;;;;;;;;5078976;28;11527;-72
2023/01/16 15:39:25;;;;;;;;;1.75;0.75;;;;;;;;5076929;28;11541;-72
2023/01/16 15:47:48;;;;;;;;;1.00;1.00;;;;;;;;5077014;28;11494;-73
2023/01/16 15:50:28;;;;;;;;;2.75;2.75;;;;;;;;5078278;28;11443;-73
2023/01/16 15:52:56;;;;;;;;;2.25;2.00;;;;;;;;5077070;28;11493;-72
2023/01/16 15:55:26;;;;;;;;;2.00;2.00;;;;;;;;5078582;28;11480;-73
2023/01/16 15:57:55;;;;;;;;;4.50;2.75;;;;;;;;5079117;28;11524;-72
2023/01/16 16:00:30;;;;;;;;;3.00;3.00;;;;;;;;5076137;28;11546;-75
2023/01/16 16:02:58;;;;;;;;;2.00;2.00;;;;;;;;5061515;28;11498;-73
2023/01/16 16:05:28;;;;;;;;;2.25;2.25;;;;;;;;5078140;28;11508;-73
2023/01/16 16:07:56;;;;;;;;;0.00;0.00;;;;;;;;5074692;28;12309;-72
2023/01/16 16:13:13;;;;;;;;;3.00;1.75;;;;;;;;5078704;28;11473;-73
2023/01/16 16:18:55;;;;;;;;;3.50;2.00;;;;;;;;5041418;28;11729;-72
2023/01/16 16:21:25;;;;;;;;;6.00;3.00;;;;;;;;5077035;28;11518;-72
2023/01/16 16:24:01;;;;;;;;;3.50;3.00;;;;;;;;5076171;28;11492;-71
2023/01/16 16:26:29;;;;;;;;;2.50;2.50;;;;;;;;5074260;28;11519;-72
2023/01/16 16:29:00;;;;;;;;;2.50;2.50;;;;;;;;5074691;28;12314;-72
2023/01/16 16:31:31;;;;;;;;;5.00;5.00;;;;;;;;5065217;28;11458;-70
2023/01/16 16:34:03;;;;;;;;;4.00;3.50;;;;;;;;5075312;28;11529;-71
2023/01/16 16:36:36;;;;;;;;;4.50;4.50;;;;;;;;5077204;28;11501;-71
2023/01/16 16:39:05;;;;;;;;;6.00;3.50;;;;;;;;5075565;28;12359;-74
2023/01/16 16:44:46;;;;;;;;;2.75;2.75;;;;;;;;5064138;28;11464;-75
2023/01/16 16:47:32;;;;;;;;;6.00;6.00;;;;;;;;5075308;28;11551;-80
2023/01/16 16:50:00;;;;;;;;;6.00;4.00;;;;;;;;5080336;28;11472;-76
2023/01/16 16:52:39;;;;;;;;;2.75;2.75;;;;;;;;5075674;28;11615;-76
2023/01/16 16:55:30;;;;;;;;;4.50;4.50;;;;;;;;5094986;27;11617;-76
2023/01/16 16:57:59;;;;;;;;;5.25;5.25;;;;;;;;5077081;28;11477;-79
2023/01/16 17:00:28;;;;;;;;;5.50;5.50;;;;;;;;5080601;28;11428;-78